Time;durP1;ratioP1;P1;durP2;ratioP2;P2;SDS_P1;SDS_P2;PMS_P1;PMS_P2;Temp;Humidity;BMP_temperature;BMP_pressure;BME280_temperature;BME280_humidity;BME280_pressure;Samples;Min_cycle;Max_cycle;Signal;HPM_P1;HPM_P2
2022/05/30 00:00:56;;;;;;;2.20;1.70;;;;;;;8.29;66.41;100037.13;5046902;28;20393;-70
2022/05/30 00:03:22;;;;;;;2.70;1.90;;;;;;;8.21;66.96;100031.75;5045130;28;20033;-70
2022/05/30 00:05:49;;;;;;;2.03;1.60;;;;;;;8.17;66.75;100029.56;5045588;28;20530;-70
2022/05/30 00:08:17;;;;;;;2.03;1.40;;;;;;;8.09;66.83;100028.50;5045390;28;20068;-71
2022/05/30 00:10:43;;;;;;;2.78;1.90;;;;;;;8.08;67.25;100031.31;5044589;28;20037;-70
2022/05/30 00:13:09;;;;;;;2.42;1.90;;;;;;;8.07;67.42;100025.19;5047411;28;20041;-70
2022/05/30 00:15:36;;;;;;;2.03;1.83;;;;;;;8.04;67.04;100024.66;5045353;28;20115;-70
2022/05/30 00:18:01;;;;;;;1.90;1.60;;;;;;;8.05;67.43;100027.13;5046671;28;20639;-70
2022/05/30 00:20:27;;;;;;;2.40;2.03;;;;;;;8.09;67.42;100031.13;5047034;28;20120;-70
2022/05/30 00:22:52;;;;;;;3.80;2.22;;;;;;;8.12;68.49;100023.91;5053322;28;20078;-70
2022/05/30 00:25:18;;;;;;;2.63;2.20;;;;;;;8.14;68.45;100022.78;5046890;28;20068;-70
2022/05/30 00:27:44;;;;;;;2.58;1.95;;;;;;;8.15;68.43;100020.97;5045321;28;20040;-70
2022/05/30 00:30:10;;;;;;;2.72;2.10;;;;;;;8.14;68.14;100022.78;5044412;28;20037;-70
2022/05/30 00:32:37;;;;;;;3.25;2.45;;;;;;;8.12;68.58;100022.09;5046595;28;20114;-70
2022/05/30 00:35:03;;;;;;;2.78;2.20;;;;;;;8.09;68.34;100019.78;5052990;28;20029;-70
2022/05/30 00:37:29;;;;;;;3.00;2.17;;;;;;;8.06;68.70;100020.09;5048721;28;20150;-70
2022/05/30 00:39:55;;;;;;;2.75;2.20;;;;;;;8.05;69.28;100013.13;5048782;28;20056;-70
2022/05/30 00:42:23;;;;;;;3.03;2.00;;;;;;;8.03;68.76;100020.34;5048707;28;20037;-70
2022/05/30 00:44:49;;;;;;;2.58;2.13;;;;;;;7.94;68.83;100019.47;5048685;28;20399;-70
2022/05/30 00:47:16;;;;;;;3.50;2.22;;;;;;;7.86;69.64;100008.81;5047735;28;20041;-70
2022/05/30 00:49:43;;;;;;;3.22;2.38;;;;;;;7.87;69.96;100013.94;5047354;28;20040;-70
2022/05/30 00:52:15;;;;;;;3.67;2.40;;;;;;;7.89;70.18;100008.53;5047876;28;20504;-70
2022/05/30 00:54:58;;;;;;;3.13;2.42;;;;;;;7.91;70.19;100000.47;5048673;28;20048;-70
2022/05/30 00:57:27;;;;;;;2.83;2.45;;;;;;;7.91;70.64;99998.66;5040612;28;20051;-70
2022/05/30 00:59:57;;;;;;;3.72;2.22;;;;;;;7.92;69.97;99999.53;5049782;28;20181;-71
2022/05/30 01:02:26;;;;;;;2.63;2.20;;;;;;;7.90;70.39;99998.84;5048893;28;20044;-70
2022/05/30 01:07:38;;;;;;;2.70;2.40;;;;;;;7.85;70.31;100002.72;5047137;28;20094;-70
2022/05/30 01:10:06;;;;;;;3.50;2.70;;;;;;;7.79;70.99;99998.03;5048877;28;20064;-70
2022/05/30 01:12:36;;;;;;;2.90;2.40;;;;;;;7.79;71.14;99997.22;5048086;28;20441;-70
2022/05/30 01:15:03;;;;;;;2.85;2.30;;;;;;;7.80;70.81;100004.97;5048785;28;20505;-70
2022/05/30 01:17:28;;;;;;;2.67;2.20;;;;;;;7.79;71.12;99997.22;5048119;28;20071;-70
2022/05/30 01:20:02;;;;;;;2.85;2.25;;;;;;;7.78;71.44;99999.03;5055175;28;20060;-70
2022/05/30 01:22:49;;;;;;;3.15;2.60;;;;;;;7.76;71.54;99992.25;5051365;28;20557;-70
2022/05/30 01:25:35;;;;;;;3.63;2.30;;;;;;;7.72;71.71;99986.44;5045219;28;20502;-70
2022/05/30 01:28:22;;;;;;;2.92;2.20;;;;;;;7.71;71.63;99987.44;5040685;28;20040;-70
2022/05/30 01:30:47;;;;;;;3.22;2.40;;;;;;;7.70;71.62;99985.78;5048086;28;20180;-70
2022/05/30 01:33:13;;;;;;;3.00;2.40;;;;;;;7.69;71.10;99983.28;5047577;28;20566;-70
2022/05/30 01:35:38;;;;;;;2.90;2.47;;;;;;;7.66;71.46;99984.41;5052438;28;20041;-70
2022/05/30 01:38:03;;;;;;;3.30;2.00;;;;;;;7.60;71.66;99988.47;5048145;28;20034;-70
2022/05/30 01:40:29;;;;;;;5.15;2.75;;;;;;;7.54;71.81;99983.78;5052067;28;20397;-70
2022/05/30 01:42:54;;;;;;;3.40;2.60;;;;;;;7.49;71.83;99982.56;5050267;28;20025;-70
2022/05/30 01:45:20;;;;;;;2.60;2.33;;;;;;;7.47;72.00;99980.06;5051874;28;20090;-70
2022/05/30 01:47:45;;;;;;;2.50;2.10;;;;;;;7.48;72.53;99978.25;5051685;28;20033;-70
2022/05/30 01:50:11;;;;;;;3.67;2.53;;;;;;;7.48;72.39;99984.34;5051143;28;20048;-71
2022/05/30 01:52:37;;;;;;;3.83;2.50;;;;;;;7.47;72.53;99984.50;5051612;28;20128;-70
2022/05/30 01:55:03;;;;;;;3.42;2.33;;;;;;;7.44;72.07;99977.75;5052099;28;20164;-70
2022/05/30 01:57:28;;;;;;;2.63;2.00;;;;;;;7.36;71.89;99983.69;5050882;28;20555;-70
2022/05/30 01:59:53;;;;;;;2.50;1.85;;;;;;;7.31;72.35;99980.66;5051633;28;20029;-70
2022/05/30 02:02:19;;;;;;;3.00;2.20;;;;;;;7.33;72.57;99984.00;5050825;28;20078;-71
2022/05/30 02:04:44;;;;;;;2.53;2.08;;;;;;;7.35;72.33;99986.50;5051700;28;20029;-71
2022/05/30 02:07:10;;;;;;;2.47;2.17;;;;;;;7.36;72.48;99974.97;5051290;28;20090;-70
2022/05/30 02:09:35;;;;;;;3.53;2.40;;;;;;;7.34;72.20;99977.78;5056928;28;20025;-71
2022/05/30 02:12:01;;;;;;;2.70;2.03;;;;;;;7.32;72.22;99976.25;5051797;28;20053;-70
2022/05/30 02:14:26;;;;;;;3.33;2.38;;;;;;;7.31;72.71;99967.53;5048103;28;20041;-70
2022/05/30 02:17:00;;;;;;;2.72;2.20;;;;;;;7.31;72.44;99967.53;5047587;28;20485;-70
2022/05/30 02:19:26;;;;;;;3.40;2.30;;;;;;;7.28;72.09;99967.00;5048033;28;20472;-71
2022/05/30 02:21:51;;;;;;;3.58;2.40;;;;;;;7.24;72.63;99961.19;5046439;28;20128;-71
2022/05/30 02:24:17;;;;;;;3.08;2.40;;;;;;;7.26;72.72;99963.69;5047425;28;20571;-70
2022/05/30 02:26:42;;;;;;;2.75;2.17;;;;;;;7.22;72.18;99952.59;5046268;28;20037;-70
2022/05/30 02:29:08;;;;;;;2.78;2.08;;;;;;;7.17;73.05;99950.41;5047271;28;20413;-70
2022/05/30 02:31:34;;;;;;;3.67;2.17;;;;;;;7.16;73.61;99955.81;5048882;28;20044;-70
2022/05/30 02:36:44;;;;;;;2.90;2.05;;;;;;;7.14;73.60;99945.44;5050681;28;20047;-70
2022/05/30 02:39:20;;;;;;;2.58;1.92;;;;;;;7.13;73.22;99941.16;5047052;28;20164;-71
2022/05/30 02:41:46;;;;;;;3.30;2.17;;;;;;;7.12;72.97;99941.31;5046254;28;20256;-70
2022/05/30 02:44:13;;;;;;;2.65;1.98;;;;;;;7.11;73.47;99947.56;5047764;28;20057;-70
2022/05/30 02:46:39;;;;;;;2.30;1.90;;;;;;;7.09;73.49;99947.69;5050422;28;20033;-70
2022/05/30 02:49:04;;;;;;;3.03;2.13;;;;;;;7.05;73.91;99945.47;5048750;28;20177;-71
2022/05/30 02:51:30;;;;;;;4.22;2.13;;;;;;;7.07;74.36;99947.00;5046615;28;20033;-70
2022/05/30 02:53:56;;;;;;;2.95;2.40;;;;;;;7.07;74.42;99944.38;5046131;28;20064;-70
2022/05/30 02:56:22;;;;;;;3.03;2.20;;;;;;;7.05;74.06;99948.94;5046005;28;20102;-71
2022/05/30 02:58:48;;;;;;;2.78;2.20;;;;;;;7.03;73.93;99956.13;5048452;28;20509;-70
2022/05/30 03:01:14;;;;;;;2.65;1.90;;;;;;;7.04;74.14;99954.34;5050969;28;20037;-70
2022/05/30 03:03:40;;;;;;;3.10;2.05;;;;;;;7.04;74.31;99959.59;5049943;28;20071;-70
2022/05/30 03:06:05;;;;;;;2.70;2.20;;;;;;;7.00;74.73;99957.25;5047989;28;20404;-71
2022/05/30 03:08:31;;;;;;;3.10;2.10;;;;;;;7.01;74.50;99958.91;5050386;28;20038;-70
2022/05/30 03:10:56;;;;;;;2.88;2.30;;;;;;;7.02;74.24;99955.31;5047294;28;20060;-70
2022/05/30 03:13:22;;;;;;;2.22;1.90;;;;;;;6.98;74.04;99953.97;5046467;28;20033;-70
2022/05/30 03:15:47;;;;;;;2.08;1.77;;;;;;;6.93;73.52;99963.22;5046859;28;20048;-70
2022/05/30 03:18:13;;;;;;;2.08;1.70;;;;;;;6.87;73.63;99964.63;5044553;28;20369;-71
2022/05/30 03:20:38;;;;;;;2.65;2.03;;;;;;;6.86;74.47;99965.56;5046513;28;20025;-70
2022/05/30 03:23:04;;;;;;;3.65;2.38;;;;;;;6.86;74.22;99970.84;5048941;28;20051;-70
2022/05/30 03:25:29;;;;;;;2.40;1.92;;;;;;;6.81;74.20;99971.25;5046275;28;20371;-70
2022/05/30 03:27:56;;;;;;;2.08;1.70;;;;;;;6.76;74.60;99977.91;5045171;28;20037;-70
2022/05/30 03:30:22;;;;;;;3.50;2.58;;;;;;;6.71;75.73;99973.09;5046001;28;20505;-71
2022/05/30 03:32:49;;;;;;;4.03;2.78;;;;;;;6.66;75.57;99972.69;5048103;28;20656;-70
2022/05/30 03:35:16;;;;;;;3.72;2.30;;;;;;;6.65;75.95;99973.66;5054378;28;20067;-71
2022/05/30 03:37:43;;;;;;;3.00;2.10;;;;;;;6.62;75.57;99983.59;5047469;28;20546;-70
2022/05/30 03:40:11;;;;;;;2.70;2.00;;;;;;;6.58;75.51;99978.63;5044239;28;20040;-70
2022/05/30 03:42:36;;;;;;;2.95;2.20;;;;;;;6.56;75.95;99985.81;5045846;28;20557;-70
2022/05/30 03:45:03;;;;;;;2.60;2.00;;;;;;;6.54;75.40;99987.75;5044989;28;20036;-70
2022/05/30 03:47:35;;;;;;;2.90;2.28;;;;;;;6.51;76.10;99992.47;5048559;28;20033;-70
2022/05/30 03:50:01;;;;;;;3.17;2.42;;;;;;;6.48;76.79;99992.72;5044755;28;20084;-70
2022/05/30 03:52:26;;;;;;;3.10;2.60;;;;;;;6.45;76.88;99993.84;5047136;28;20033;-70
2022/05/30 03:54:52;;;;;;;2.92;2.30;;;;;;;6.44;76.65;99994.81;5047643;28;20033;-70
2022/05/30 03:57:18;;;;;;;3.05;2.28;;;;;;;6.42;76.71;99998.53;5047223;28;20660;-70
2022/05/30 03:59:43;;;;;;;3.10;2.42;;;;;;;6.41;76.99;100000.31;5046356;28;20048;-70
2022/05/30 04:02:09;;;;;;;2.88;2.03;;;;;;;6.40;76.78;99996.03;5044528;28;20037;-71
2022/05/30 04:04:34;;;;;;;2.90;2.20;;;;;;;6.38;76.63;99990.94;5047790;28;20230;-70
2022/05/30 04:07:00;;;;;;;2.78;2.20;;;;;;;6.37;76.83;100001.59;5049065;28;20138;-71
2022/05/30 04:09:25;;;;;;;3.20;2.58;;;;;;;6.34;76.88;100000.06;5048349;28;20033;-70
2022/05/30 04:11:51;;;;;;;3.47;2.50;;;;;;;6.34;76.21;100009.72;5045947;28;20418;-70
2022/05/30 04:14:16;;;;;;;3.55;2.72;;;;;;;6.32;77.58;100009.88;5045001;28;20029;-71
2022/05/30 04:16:41;;;;;;;3.40;2.65;;;;;;;6.32;78.11;100009.06;5046165;28;20112;-70
2022/05/30 04:19:06;;;;;;;3.85;2.50;;;;;;;6.35;77.49;100006.13;5046373;28;20193;-70
2022/05/30 04:21:32;;;;;;;3.53;2.97;;;;;;;6.34;79.21;100012.34;5044534;28;20478;-70
2022/05/30 04:23:57;;;;;;;4.07;2.90;;;;;;;6.37;79.12;100009.47;5045497;28;20039;-70
2022/05/30 04:26:22;;;;;;;4.93;2.97;;;;;;;6.40;79.11;100010.97;5043975;28;20120;-71
2022/05/30 04:28:48;;;;;;;3.88;2.70;;;;;;;6.44;78.62;100015.81;5045599;28;20478;-70
2022/05/30 04:31:14;;;;;;;3.50;2.40;;;;;;;6.51;78.37;100016.94;5044995;28;20110;-70
2022/05/30 04:33:40;;;;;;;3.28;2.28;;;;;;;6.59;77.78;100017.06;5047082;28;20048;-70
2022/05/30 04:36:07;;;;;;;3.40;2.20;;;;;;;6.67;77.60;100026.03;5052753;28;20493;-71
2022/05/30 04:38:32;;;;;;;2.30;1.88;;;;;;;6.74;77.42;100032.41;5046438;28;20072;-70
2022/05/30 04:40:58;;;;;;;3.45;1.80;;;;;;;6.80;77.17;100031.84;5044633;28;20040;-71
2022/05/30 04:43:23;;;;;;;3.72;1.95;;;;;;;6.88;77.47;100031.97;5045011;28;20033;-70
2022/05/30 04:46:03;;;;;;;2.63;1.70;;;;;;;6.99;77.43;100031.81;5046470;28;20063;-70
2022/05/30 04:48:28;;;;;;;2.70;1.90;;;;;;;7.06;77.87;100031.28;5040880;28;20037;-70
2022/05/30 04:50:53;;;;;;;2.40;1.90;;;;;;;7.15;77.26;100033.88;5045345;28;20032;-70
2022/05/30 04:53:19;;;;;;;3.83;2.25;;;;;;;7.28;77.20;100036.19;5043932;28;20095;-70
2022/05/30 04:55:44;;;;;;;4.30;2.20;;;;;;;7.40;77.19;100035.06;5045349;28;20029;-70
2022/05/30 04:58:09;;;;;;;3.25;2.10;;;;;;;7.56;76.73;100044.16;5045706;28;20037;-70
2022/05/30 05:00:34;;;;;;;3.45;2.55;;;;;;;7.64;76.71;100036.34;5043770;28;20044;-71
2022/05/30 05:03:00;;;;;;;2.63;2.10;;;;;;;7.71;76.60;100033.97;5043467;28;20106;-71
2022/05/30 05:05:25;;;;;;;3.28;1.90;;;;;;;7.79;76.39;100039.31;5048624;28;20555;-71
2022/05/30 05:08:04;;;;;;;2.88;2.25;;;;;;;7.84;76.15;100039.72;5046496;28;20152;-71
2022/05/30 05:10:57;;;;;;;4.45;2.30;;;;;;;7.92;75.79;100049.53;5042475;28;20083;-71
2022/05/30 05:13:22;;;;;;;2.60;2.30;;;;;;;7.99;75.78;100054.06;5044351;28;20036;-71
2022/05/30 05:15:48;;;;;;;2.40;1.90;;;;;;;8.09;75.41;100043.47;5050977;28;20037;-70
2022/05/30 05:18:14;;;;;;;2.63;2.00;;;;;;;8.18;75.14;100055.75;5049689;28;20536;-71
2022/05/30 05:20:44;;;;;;;2.53;1.80;;;;;;;8.28;75.16;100053.06;5048663;28;20128;-71
2022/05/30 05:23:11;;;;;;;2.60;2.20;;;;;;;8.41;75.10;100053.53;5049388;28;20041;-71
2022/05/30 05:25:38;;;;;;;3.42;2.70;;;;;;;8.55;75.14;100048.75;5048699;28;20064;-71
2022/05/30 05:28:04;;;;;;;3.83;2.30;;;;;;;8.71;74.77;100049.72;5047919;28;20472;-71
2022/05/30 05:30:30;;;;;;;4.20;2.58;;;;;;;8.88;74.81;100041.94;5048747;28;20040;-71
2022/05/30 05:32:55;;;;;;;3.75;2.38;;;;;;;9.14;74.34;100048.06;5052352;28;20033;-71
2022/05/30 05:35:21;;;;;;;4.43;2.53;;;;;;;9.45;73.25;100052.91;5048400;28;20421;-71
2022/05/30 05:37:46;;;;;;;3.30;2.30;;;;;;;9.66;72.54;100049.88;5048068;28;20060;-71
2022/05/30 05:40:11;;;;;;;3.03;2.22;;;;;;;9.87;72.28;100046.84;5050056;28;20044;-71
2022/05/30 05:42:37;;;;;;;3.28;2.20;;;;;;;10.07;71.13;100052.69;5053450;28;20130;-71
2022/05/30 05:45:03;;;;;;;3.05;1.80;;;;;;;10.50;70.78;100055.31;5053365;28;20040;-71
2022/05/30 05:47:28;;;;;;;2.03;1.60;;;;;;;11.07;70.55;100051.88;5047846;28;20060;-71
2022/05/30 05:49:54;;;;;;;1.95;1.60;;;;;;;11.61;70.19;100057.41;5049064;28;20025;-71
2022/05/30 05:52:20;;;;;;;7.95;4.15;;;;;;;12.05;67.05;100059.56;5048701;28;20049;-72
2022/05/30 05:54:45;;;;;;;15.98;6.43;;;;;;;12.50;66.24;100058.81;5048758;28;20033;-72
2022/05/30 05:57:11;;;;;;;8.73;4.05;;;;;;;12.90;65.01;100053.41;5048821;28;20041;-72
2022/05/30 05:59:37;;;;;;;4.50;2.35;;;;;;;13.27;64.18;100055.25;5049615;28;20021;-72
2022/05/30 06:02:04;;;;;;;3.20;1.80;;;;;;;13.79;63.10;100059.66;5054124;28;20044;-72
2022/05/30 06:04:30;;;;;;;2.55;1.60;;;;;;;14.18;61.55;100057.69;5046651;28;20063;-72
2022/05/30 06:07:00;;;;;;;3.50;1.90;;;;;;;14.52;60.74;100057.06;5047333;28;20033;-72
2022/05/30 06:09:25;;;;;;;3.17;1.90;;;;;;;14.85;59.86;100059.25;5049591;28;20063;-72
2022/05/30 06:11:51;;;;;;;2.72;1.80;;;;;;;15.00;59.55;100054.66;5051061;28;20040;-72
2022/05/30 06:14:16;;;;;;;2.78;1.80;;;;;;;15.21;58.64;100058.31;5051324;28;20040;-72
2022/05/30 06:16:42;;;;;;;2.53;1.75;;;;;;;15.46;58.16;100053.34;5050266;28;20440;-72
2022/05/30 06:19:08;;;;;;;2.85;1.90;;;;;;;15.62;56.96;100054.91;5048151;28;20049;-72
2022/05/30 06:21:34;;;;;;;3.28;1.73;;;;;;;15.79;57.21;100050.09;5044984;28;20048;-72
2022/05/30 06:24:00;;;;;;;2.30;1.40;;;;;;;16.09;56.59;100056.78;5050170;28;20441;-72
2022/05/30 06:26:27;;;;;;;2.55;1.90;;;;;;;16.23;55.29;100056.81;5045850;28;20052;-72
2022/05/30 06:28:56;;;;;;;2.20;1.50;;;;;;;16.49;55.80;100062.25;5050972;28;20044;-72
2022/05/30 06:31:25;;;;;;;2.45;1.63;;;;;;;16.77;54.15;100070.09;5047479;28;20047;-72
2022/05/30 06:33:51;;;;;;;2.35;1.70;;;;;;;16.90;53.69;100068.50;5048482;28;20037;-72
2022/05/30 06:36:19;;;;;;;2.90;2.00;;;;;;;17.10;52.79;100074.66;5050404;28;20041;-73
2022/05/30 06:38:46;;;;;;;2.28;1.52;;;;;;;17.13;52.32;100074.25;5048707;28;20047;-72
2022/05/30 06:41:16;;;;;;;2.63;1.52;;;;;;;17.31;52.48;100064.81;5050371;28;20308;-72
2022/05/30 06:43:43;;;;;;;2.10;1.40;;;;;;;17.59;52.52;100072.56;5048343;28;20082;-72
2022/05/30 06:46:10;;;;;;;3.05;2.00;;;;;;;17.54;49.40;100075.03;5051254;28;20029;-73
2022/05/30 06:48:36;;;;;;;2.25;1.60;;;;;;;17.45;50.32;100077.13;5040271;28;20036;-72
2022/05/30 06:51:08;;;;;;;3.38;1.30;;;;;;;17.56;50.35;100079.16;5049143;28;20079;-72
2022/05/30 06:53:33;;;;;;;1.70;1.30;;;;;;;17.71;50.63;100080.75;5047262;28;20620;-72
2022/05/30 06:55:59;;;;;;;2.55;1.10;;;;;;;18.00;50.05;100076.81;5047305;28;20124;-72
2022/05/30 06:58:24;;;;;;;2.30;1.27;;;;;;;18.08;49.04;100079.25;5047173;28;20393;-72
2022/05/30 07:00:51;;;;;;;1.58;1.08;;;;;;;18.14;48.94;100085.59;5047246;28;20056;-72
2022/05/30 07:03:17;;;;;;;1.50;0.88;;;;;;;18.43;49.04;100082.38;5046122;28;20571;-72
2022/05/30 07:05:45;;;;;;;2.55;1.08;;;;;;;18.55;47.40;100082.53;5045955;28;20042;-72
2022/05/30 07:08:12;;;;;;;1.85;1.08;;;;;;;18.65;47.93;100085.53;5046608;28;20121;-73
2022/05/30 07:10:38;;;;;;;2.55;1.17;;;;;;;18.87;47.67;100086.03;5047554;28;20053;-72
2022/05/30 07:13:05;;;;;;;1.92;1.17;;;;;;;19.06;46.46;100078.06;5050611;28;20033;-73
2022/05/30 07:15:34;;;;;;;1.45;0.93;;;;;;;19.10;46.55;100090.00;5050585;28;20040;-73
2022/05/30 07:18:05;;;;;;;1.73;0.90;;;;;;;19.44;46.64;100085.97;5050792;28;20112;-72
2022/05/30 07:20:31;;;;;;;;;;;;;;;19.82;46.12;100082.34;5052134;28;20037;-73
2022/05/30 07:22:56;;;;;;;1.93;0.80;;;;;;;20.09;45.33;100088.22;5049981;28;19924;-72
2022/05/30 07:25:21;;;;;;;2.00;1.10;;;;;;;20.21;44.15;100082.09;5047775;28;20037;-73
2022/05/30 07:27:46;;;;;;;1.50;0.80;;;;;;;20.34;44.18;100090.78;5048299;28;20037;-72
2022/05/30 07:30:12;;;;;;;1.50;1.00;;;;;;;20.54;43.66;100087.81;5045947;28;20052;-73
2022/05/30 07:32:37;;;;;;;1.23;0.70;;;;;;;21.00;43.53;100078.31;5047339;28;20175;-73
2022/05/30 07:35:03;;;;;;;1.75;0.73;;;;;;;21.40;42.82;100083.03;5050220;28;20552;-73
2022/05/30 07:37:29;;;;;;;2.03;0.95;;;;;;;21.58;41.03;100087.47;5044865;28;20207;-72
2022/05/30 07:39:55;;;;;;;1.58;0.80;;;;;;;21.87;41.35;100087.53;5047379;28;20391;-73
2022/05/30 07:42:20;;;;;;;1.58;0.80;;;;;;;21.86;40.80;100085.94;5049590;28;20170;-73
2022/05/30 07:44:46;;;;;;;;;;;;;;;21.68;39.95;100083.38;5050192;28;20101;-73
2022/05/30 07:47:11;;;;;;;1.40;0.73;;;;;;;21.98;39.32;100080.53;5046273;28;19929;-72
2022/05/30 07:49:37;;;;;;;0.97;0.50;;;;;;;22.62;39.35;100085.78;5042638;28;20439;-72
2022/05/30 07:52:03;;;;;;;0.68;0.50;;;;;;;23.01;39.36;100086.78;5045728;28;20048;-73
2022/05/30 07:54:28;;;;;;;1.27;0.60;;;;;;;23.35;38.46;100084.06;5044947;28;20534;-73
2022/05/30 07:56:53;;;;;;;1.05;0.65;;;;;;;23.67;37.81;100083.47;5044624;28;20041;-73
2022/05/30 07:59:19;;;;;;;2.03;0.90;;;;;;;23.99;36.79;100082.81;5047486;28;20040;-73
2022/05/30 08:01:44;;;;;;;1.60;0.75;;;;;;;24.54;33.96;100082.63;5044121;28;20421;-73
2022/05/30 08:04:13;;;;;;;2.42;1.00;;;;;;;24.51;34.80;100082.34;5043929;28;20094;-72
2022/05/30 08:06:39;;;;;;;0.85;0.60;;;;;;;24.56;34.88;100079.69;5045241;28;20037;-73
2022/05/30 08:09:05;;;;;;;1.17;0.70;;;;;;;24.94;33.80;100083.28;5048848;28;20490;-73
2022/05/30 08:11:30;;;;;;;1.50;0.80;;;;;;;25.21;33.16;100075.94;5047505;28;20063;-73
2022/05/30 08:13:56;;;;;;;0.93;0.57;;;;;;;25.58;32.86;100083.22;5045735;28;20029;-72
2022/05/30 08:16:24;;;;;;;1.05;0.63;;;;;;;25.77;32.28;100086.31;5044911;28;20067;-73
2022/05/30 08:18:50;;;;;;;1.70;0.75;;;;;;;25.88;32.21;100081.75;5047767;28;20747;-73
2022/05/30 08:21:15;;;;;;;1.25;0.70;;;;;;;25.89;31.55;100085.31;5046770;28;20063;-73
2022/05/30 08:23:41;;;;;;;0.90;0.63;;;;;;;25.80;30.53;100084.97;5045811;28;20206;-73
2022/05/30 08:26:07;;;;;;;1.55;0.63;;;;;;;25.30;30.10;100078.16;5044835;28;20039;-73
2022/05/30 08:28:33;;;;;;;2.03;0.80;;;;;;;25.51;29.52;100085.34;5047372;28;20040;-73
2022/05/30 08:30:58;;;;;;;1.50;0.70;;;;;;;25.97;29.64;100082.09;5044256;28;20033;-73
2022/05/30 08:33:24;;;;;;;1.73;0.60;;;;;;;26.61;29.20;100086.34;5044182;28;20387;-73
2022/05/30 08:36:07;;;;;;;0.77;0.40;;;;;;;27.19;29.10;100092.38;5048110;28;20040;-74
2022/05/30 08:38:33;;;;;;;1.88;0.70;;;;;;;27.37;27.02;100088.28;5046095;28;20100;-73
2022/05/30 08:43:49;;;;;;;1.65;0.70;;;;;;;25.37;29.40;100082.28;5049268;28;20035;-73
2022/05/30 08:46:46;;;;;;;0.90;0.60;;;;;;;25.30;29.55;100078.97;5046373;28;20044;-73
2022/05/30 08:49:21;;;;;;;2.13;0.70;;;;;;;26.65;28.28;100079.31;5047928;28;20033;-73
2022/05/30 08:52:07;;;;;;;1.05;0.50;;;;;;;27.25;27.26;100085.84;5046030;28;20049;-73
2022/05/30 08:54:51;;;;;;;1.63;0.60;;;;;;;27.09;26.10;100093.16;5044206;28;20041;-73
2022/05/30 08:57:58;;;;;;;0.93;0.60;;;;;;;27.24;26.96;100091.53;5045624;28;20413;-73
2022/05/30 09:00:30;;;;;;;0.85;0.57;;;;;;;27.66;26.83;100088.47;5037428;28;20070;-73
2022/05/30 09:03:10;;;;;;;0.93;0.60;;;;;;;27.95;25.57;100093.31;5045765;28;20404;-73
2022/05/30 09:05:49;;;;;;;0.82;0.40;;;;;;;28.51;24.92;100084.91;5043683;28;20033;-73
2022/05/30 09:08:24;;;;;;;1.83;0.60;;;;;;;28.79;22.99;100087.94;5042320;28;20082;-73
2022/05/30 09:10:56;;;;;;;0.50;0.40;;;;;;;29.20;23.48;100080.28;5046450;28;20033;-73
2022/05/30 09:13:46;;;;;;;1.13;0.50;;;;;;;28.69;24.30;100080.69;5048324;28;20056;-73
2022/05/30 09:16:33;;;;;;;0.77;0.50;;;;;;;28.93;23.45;100077.22;5044621;28;20034;-73
2022/05/30 09:19:01;;;;;;;1.13;0.60;;;;;;;28.97;23.72;100078.28;5046501;28;20029;-73
2022/05/30 09:21:29;;;;;;;1.23;0.50;;;;;;;29.31;24.04;100074.75;5050983;28;20052;-73
2022/05/30 09:23:54;;;;;;;1.15;0.63;;;;;;;28.22;24.96;100073.06;5045030;28;20116;-73
2022/05/30 09:26:23;;;;;;;1.60;0.60;;;;;;;26.72;26.09;100082.59;5046113;28;20048;-73
2022/05/30 09:28:50;;;;;;;0.77;0.43;;;;;;;26.42;26.77;100075.19;5045618;28;20406;-72
2022/05/30 09:31:29;;;;;;;1.20;0.80;;;;;;;26.23;26.18;100074.84;5046918;28;20493;-73
2022/05/30 09:33:57;;;;;;;0.82;0.50;;;;;;;24.82;27.52;100071.81;5048783;28;20038;-72
2022/05/30 09:36:31;;;;;;;1.98;0.70;;;;;;;23.85;28.01;100066.97;5042316;28;20094;-72
2022/05/30 09:39:06;;;;;;;0.55;0.50;;;;;;;23.15;28.91;100064.88;5041324;28;20029;-72
2022/05/30 09:41:38;;;;;;;0.68;0.50;;;;;;;22.91;29.48;100073.09;5045920;28;20744;-72
2022/05/30 09:44:10;;;;;;;1.98;0.57;;;;;;;22.70;29.72;100071.94;5055280;28;20046;-72
2022/05/30 09:46:43;;;;;;;0.93;0.50;;;;;;;22.61;30.15;100073.38;5050071;28;20119;-72
2022/05/30 09:49:15;;;;;;;1.10;0.60;;;;;;;22.41;31.05;100077.34;5054387;28;20037;-73
2022/05/30 09:51:43;;;;;;;1.63;0.73;;;;;;;22.06;31.66;100069.38;5050576;28;20120;-72
2022/05/30 09:54:33;;;;;;;2.20;0.70;;;;;;;21.10;32.66;100072.34;5046426;28;20087;-72
2022/05/30 09:57:17;;;;;;;1.23;0.60;;;;;;;20.89;33.34;100076.41;5044111;28;20740;-72
2022/05/30 09:59:45;;;;;;;0.50;0.50;;;;;;;20.81;33.73;100078.59;5042875;28;20119;-72
2022/05/30 10:02:31;;;;;;;1.33;0.55;;;;;;;20.77;34.19;100067.50;5047895;28;20514;-72
2022/05/30 10:05:03;;;;;;;1.40;0.63;;;;;;;20.41;34.30;100074.59;5052273;28;20478;-72
2022/05/30 10:07:29;;;;;;;1.50;0.68;;;;;;;20.26;34.88;100071.47;5050513;28;20033;-72
2022/05/30 10:09:57;;;;;;;1.27;0.70;;;;;;;20.06;34.98;100075.25;5054249;28;20037;-72
2022/05/30 10:12:40;;;;;;;2.97;0.88;;;;;;;20.46;35.23;100077.41;5047383;28;20037;-72
2022/05/30 10:15:44;;;;;;;0.70;0.50;;;;;;;24.53;31.29;100080.22;5049278;28;20033;-72
2022/05/30 10:18:16;;;;;;;1.03;0.60;;;;;;;26.70;26.89;100082.03;5025537;28;20061;-73
2022/05/30 10:20:41;;;;;;;1.40;0.70;;;;;;;27.57;25.67;100087.41;5047181;28;20130;-73
2022/05/30 10:29:57;;;;;;;1.58;0.60;;;;;;;24.19;28.67;100085.72;5047405;28;20107;-73
2022/05/30 10:32:39;;;;;;;1.52;0.70;;;;;;;22.85;30.21;100088.38;5047283;28;20044;-74
2022/05/30 10:35:29;;;;;;;1.50;0.50;;;;;;;21.97;31.67;100092.31;5043497;28;20041;-73
2022/05/30 10:38:20;;;;;;;2.60;0.85;;;;;;;21.27;32.75;100093.19;5049341;28;20563;-73
2022/05/30 10:40:55;;;;;;;1.83;0.60;;;;;;;21.06;33.44;100098.03;5048164;28;20094;-74
2022/05/30 10:43:26;;;;;;;0.85;0.60;;;;;;;20.79;33.81;100092.28;5059309;28;20041;-73
2022/05/30 10:46:04;;;;;;;1.02;0.60;;;;;;;20.56;34.18;100093.00;5051806;28;20039;-74
2022/05/30 10:48:38;;;;;;;1.33;0.60;;;;;;;20.53;33.87;100088.88;5049557;28;20048;-73
2022/05/30 10:51:10;;;;;;;1.77;0.70;;;;;;;20.24;34.59;100098.56;5050638;28;20041;-73
2022/05/30 10:53:35;;;;;;;1.23;0.70;;;;;;;20.22;34.76;100086.41;5048681;28;20036;-73
2022/05/30 10:56:12;;;;;;;0.60;0.50;;;;;;;20.40;35.05;100097.09;5047844;28;20033;-73
2022/05/30 10:59:15;;;;;;;1.40;0.68;;;;;;;20.60;34.13;100099.56;5043848;28;21291;-73
2022/05/30 11:01:51;;;;;;;1.48;0.70;;;;;;;20.54;33.96;100103.13;5039602;28;20404;-73
2022/05/30 11:05:01;;;;;;;2.17;0.73;;;;;;;20.64;33.83;100094.53;5047243;28;20040;-73
2022/05/30 11:07:52;;;;;;;1.38;0.60;;;;;;;21.03;33.67;100097.72;5011288;28;20125;-73
2022/05/30 11:10:39;;;;;;;2.05;0.80;;;;;;;21.18;33.00;100093.50;5040691;28;20055;-72
2022/05/30 11:13:48;;;;;;;3.20;0.70;;;;;;;22.32;33.22;100104.91;5047468;28;20060;-73
2022/05/30 11:16:37;;;;;;;1.25;0.50;;;;;;;24.12;30.09;100094.06;5006503;28;20622;-73
2022/05/30 11:19:41;;;;;;;2.30;0.90;;;;;;;26.53;26.50;100101.25;5048460;28;20061;-73
2022/05/30 11:22:12;;;;;;;3.45;0.80;;;;;;;28.37;24.60;100097.47;5043965;28;20045;-74
2022/05/30 11:24:37;;;;;;;0.80;0.57;;;;;;;29.07;23.52;100091.03;5049216;28;20037;-74
2022/05/30 11:27:10;;;;;;;0.95;0.60;;;;;;;30.42;22.51;100092.81;5047229;28;20407;-74
2022/05/30 11:30:03;;;;;;;2.35;0.63;;;;;;;29.85;22.02;100095.44;5048256;28;20432;-73
2022/05/30 11:32:45;;;;;;;2.10;0.70;;;;;;;29.74;22.79;100100.19;5048304;28;20056;-73
2022/05/30 11:35:16;;;;;;;1.25;0.50;;;;;;;31.49;21.45;100110.22;5047937;28;20280;-73
2022/05/30 11:37:47;;;;;;;1.55;0.70;;;;;;;30.74;20.48;100111.16;5047636;28;20037;-73
2022/05/30 11:40:31;;;;;;;1.88;0.60;;;;;;;28.87;22.66;100103.69;5045519;28;20080;-74
2022/05/30 11:43:28;;;;;;;1.52;0.52;;;;;;;28.63;22.17;100103.59;5063982;28;20036;-74
2022/05/30 11:45:57;;;;;;;1.45;0.70;;;;;;;30.28;21.23;100103.63;5050948;28;20033;-74
2022/05/30 11:48:43;;;;;;;1.38;0.80;;;;;;;29.85;20.77;100106.34;5050418;28;20060;-74
2022/05/30 11:51:48;;;;;;;1.20;0.57;;;;;;;28.17;23.55;100110.06;5051078;28;20394;-74
2022/05/30 11:54:35;;;;;;;1.20;0.52;;;;;;;30.44;21.22;100101.53;5050247;28;20127;-74
2022/05/30 11:57:13;;;;;;;1.35;0.70;;;;;;;32.19;19.06;100108.28;5049844;28;20567;-74
2022/05/30 12:00:00;;;;;;;1.73;0.70;;;;;;;32.80;18.24;100103.38;5049943;28;20033;-74